Time;durP1;ratioP1;P1;durP2;ratioP2;P2;SDS_P1;SDS_P2;PMS_P1;PMS_P2;Temp;Humidity;BMP_temperature;BMP_pressure;BME280_temperature;BME280_humidity;BME280_pressure;Samples;Min_cycle;Max_cycle;Signal;HPM_P1;HPM_P2
2022/03/22 00:00:00;;;;;;;20.70;18.53;;;7.60;99.90;;;;;;4995484;28;20570;-59
2022/03/22 00:02:30;;;;;;;22.10;18.10;;;7.50;99.90;;;;;;4994719;28;20470;-60
2022/03/22 00:04:57;;;;;;;22.97;17.00;;;7.40;99.90;;;;;;4982139;28;20471;-59
2022/03/22 00:07:24;;;;;;;19.80;16.10;;;7.30;99.90;;;;;;4979270;28;20496;-59
2022/03/22 00:09:54;;;;;;;21.50;17.57;;;7.30;99.90;;;;;;4978339;28;20462;-59
2022/03/22 00:12:26;;;;;;;26.93;20.27;;;7.20;99.90;;;;;;4975646;28;20981;-60
2022/03/22 00:14:53;;;;;;;25.10;18.60;;;7.20;99.90;;;;;;4975967;28;20482;-58
2022/03/22 00:17:21;;;;;;;24.57;17.90;;;7.20;99.90;;;;;;4977873;28;20887;-60
2022/03/22 00:19:51;;;;;;;22.83;17.33;;;7.20;99.90;;;;;;4979831;28;20497;-59
2022/03/22 00:22:21;;;;;;;20.90;17.47;;;7.20;99.90;;;;;;4979564;28;20815;-59
2022/03/22 00:24:57;;;;;;;20.93;16.80;;;7.10;99.90;;;;;;4978123;28;20521;-59
2022/03/22 00:27:27;;;;;;;22.57;17.10;;;7.10;99.90;;;;;;4976486;28;20465;-59
2022/03/22 00:29:54;;;;;;;22.10;17.87;;;7.10;99.90;;;;;;4977879;28;20441;-59
2022/03/22 00:32:26;;;;;;;21.23;17.67;;;7.10;99.90;;;;;;4976456;28;20454;-59
2022/03/22 00:34:56;;;;;;;23.87;18.37;;;7.10;99.90;;;;;;4977820;28;20469;-59
2022/03/22 00:37:24;;;;;;;21.87;16.97;;;7.10;99.90;;;;;;4975005;28;20950;-58
2022/03/22 00:39:52;;;;;;;20.93;17.00;;;7.10;99.90;;;;;;4979568;28;20492;-60
2022/03/22 00:42:22;;;;;;;21.00;16.27;;;7.00;99.90;;;;;;4978809;28;20490;-59
2022/03/22 00:44:55;;;;;;;22.30;17.23;;;7.00;99.90;;;;;;4977403;28;20473;-59
2022/03/22 00:47:23;;;;;;;25.87;17.33;;;7.00;99.90;;;;;;4976527;28;20860;-59
2022/03/22 00:49:50;;;;;;;24.40;18.90;;;7.00;99.90;;;;;;4978433;28;20466;-59
2022/03/22 00:52:19;;;;;;;25.33;18.60;;;7.00;99.90;;;;;;4979889;28;20462;-59
2022/03/22 00:54:49;;;;;;;22.40;17.57;;;6.90;99.90;;;;;;4978929;28;20472;-59
2022/03/22 00:57:18;;;;;;;25.13;17.30;;;6.90;99.90;;;;;;4977817;28;20735;-59
2022/03/22 01:00:04;;;;;;;24.03;17.17;;;6.90;99.90;;;;;;4977320;28;20508;-58
2022/03/22 01:02:36;;;;;;;21.10;17.80;;;6.90;99.90;;;;;;4987353;28;20468;-59
2022/03/22 01:05:06;;;;;;;22.63;18.10;;;6.90;99.90;;;;;;4988291;28;20468;-59
2022/03/22 01:07:34;;;;;;;24.80;19.20;;;6.90;99.90;;;;;;4980544;28;20491;-59
2022/03/22 01:10:09;;;;;;;22.50;17.43;;;6.80;99.90;;;;;;4993154;28;20463;-60
2022/03/22 01:12:39;;;;;;;21.67;17.73;;;6.80;99.90;;;;;;4993494;28;20743;-58
2022/03/22 01:15:16;;;;;;;23.40;18.77;;;6.80;99.90;;;;;;5001946;28;20518;-59
2022/03/22 01:17:45;;;;;;;23.30;18.47;;;6.80;99.90;;;;;;4982043;28;20466;-58
2022/03/22 01:20:15;;;;;;;23.83;18.10;;;6.70;99.90;;;;;;4988400;28;20550;-59
2022/03/22 01:22:45;;;;;;;21.90;18.93;;;6.60;99.90;;;;;;4988919;28;20466;-58
2022/03/22 01:25:25;;;;;;;25.80;19.40;;;6.50;99.90;;;;;;4996370;28;20515;-59
2022/03/22 01:28:07;;;;;;;30.33;19.67;;;6.40;99.90;;;;;;4985825;28;20507;-58
2022/03/22 01:30:35;;;;;;;24.40;18.80;;;6.40;99.90;;;;;;4997973;28;20489;-59
2022/03/22 01:33:05;;;;;;;20.23;17.43;;;6.30;99.90;;;;;;5000213;28;20877;-58
2022/03/22 01:35:34;;;;;;;21.97;18.63;;;6.50;99.90;;;;;;4987733;28;20469;-59
2022/03/22 01:38:01;;;;;;;23.83;17.23;;;6.40;99.90;;;;;;4980843;28;20470;-59
2022/03/22 01:40:35;;;;;;;22.83;17.30;;;6.50;99.90;;;;;;4981794;28;20493;-59
2022/03/22 01:43:02;;;;;;;20.30;16.83;;;6.50;99.90;;;;;;4983007;28;20461;-59
2022/03/22 01:45:32;;;;;;;21.60;17.70;;;6.50;99.90;;;;;;5000769;28;20475;-58
2022/03/22 01:48:01;;;;;;;24.73;18.73;;;6.30;99.90;;;;;;4992539;28;20469;-57
2022/03/22 01:50:34;;;;;;;24.47;18.50;;;6.30;99.90;;;;;;5000834;28;20494;-56
2022/03/22 01:53:07;;;;;;;26.40;17.47;;;6.40;99.90;;;;;;4988410;28;20473;-58
2022/03/22 01:55:34;;;;;;;19.93;16.40;;;6.30;99.90;;;;;;5000530;28;20476;-59
2022/03/22 01:58:04;;;;;;;23.13;17.33;;;6.30;99.90;;;;;;4998994;28;20478;-58
2022/03/22 02:00:31;;;;;;;21.70;16.70;;;6.30;99.90;;;;;;5000534;28;20501;-58
2022/03/22 02:05:58;;;;;;;21.43;17.40;;;6.20;99.90;;;;;;4999046;28;20440;-58
2022/03/22 02:08:33;;;;;;;22.07;17.33;;;6.20;99.90;;;;;;4993375;28;20556;-59
2022/03/22 02:11:01;;;;;;;21.30;16.80;;;6.10;99.90;;;;;;4992805;28;20458;-59
2022/03/22 02:13:29;;;;;;;23.60;16.50;;;6.10;99.90;;;;;;4980059;28;20520;-59
2022/03/22 02:15:59;;;;;;;24.93;19.03;;;6.00;99.90;;;;;;4993639;28;20464;-58
2022/03/22 02:18:28;;;;;;;22.40;17.77;;;6.00;99.90;;;;;;4977675;28;20465;-58
2022/03/22 02:20:58;;;;;;;24.33;18.10;;;6.00;99.90;;;;;;4990905;28;20551;-59
2022/03/22 02:23:45;;;;;;;20.57;16.00;;;5.90;99.90;;;;;;4992596;28;20758;-58
2022/03/22 02:26:16;;;;;;;20.27;17.37;;;5.90;99.90;;;;;;4983121;28;20522;-59
2022/03/22 02:28:43;;;;;;;24.60;17.70;;;5.90;99.90;;;;;;4991590;28;20528;-59
2022/03/22 02:31:13;;;;;;;20.90;16.00;;;5.80;99.90;;;;;;4987576;28;20461;-58
2022/03/22 02:33:41;;;;;;;23.63;18.23;;;5.70;99.90;;;;;;5000043;28;20811;-58
2022/03/22 02:36:12;;;;;;;20.90;16.50;;;5.70;99.90;;;;;;4986664;28;20572;-58
2022/03/22 02:38:42;;;;;;;23.20;17.43;;;5.70;99.90;;;;;;4995424;28;20462;-58
2022/03/22 02:41:18;;;;;;;21.20;15.83;;;5.60;99.90;;;;;;4982366;28;20499;-58
2022/03/22 02:43:48;;;;;;;20.60;15.63;;;5.60;99.90;;;;;;4999414;28;20911;-58
2022/03/22 02:46:15;;;;;;;26.40;16.47;;;5.60;99.90;;;;;;4983777;28;20462;-58
2022/03/22 02:48:44;;;;;;;20.30;16.23;;;5.60;99.90;;;;;;4998668;28;20754;-59
2022/03/22 02:51:16;;;;;;;22.03;16.50;;;5.60;99.90;;;;;;4980041;28;20493;-59
2022/03/22 02:53:46;;;;;;;23.17;17.20;;;5.60;99.90;;;;;;4998168;28;20476;-57
2022/03/22 02:56:19;;;;;;;21.97;16.70;;;5.60;99.90;;;;;;4985897;28;20466;-59
2022/03/22 02:58:49;;;;;;;19.33;15.93;;;5.60;99.90;;;;;;4996379;28;20562;-58
2022/03/22 03:01:24;;;;;;;20.57;17.40;;;5.70;99.90;;;;;;4981098;28;20558;-58
2022/03/22 03:03:53;;;;;;;21.63;17.00;;;5.60;99.90;;;;;;4994068;28;20512;-59
2022/03/22 03:06:23;;;;;;;18.00;15.77;;;5.70;99.90;;;;;;4989306;28;20898;-59
2022/03/22 03:08:53;;;;;;;22.20;17.30;;;5.70;99.90;;;;;;4991293;28;20498;-58
2022/03/22 03:11:20;;;;;;;20.97;16.73;;;5.70;99.90;;;;;;4984141;28;20766;-59
2022/03/22 03:16:34;;;;;;;20.27;15.33;;;5.70;99.90;;;;;;4991110;28;20873;-59
2022/03/22 03:19:03;;;;;;;22.73;17.37;;;5.70;99.90;;;;;;4976052;28;20911;-59
2022/03/22 03:21:33;;;;;;;19.33;15.87;;;5.70;99.90;;;;;;4978678;28;20526;-59
2022/03/22 03:24:06;;;;;;;26.07;18.60;;;5.60;99.90;;;;;;4981344;28;20520;-59
2022/03/22 03:26:34;;;;;;;21.30;16.20;;;5.70;99.90;;;;;;4978550;28;20461;-59
2022/03/22 03:29:00;;;;;;;21.50;15.83;;;5.60;99.90;;;;;;4983388;28;20461;-59
2022/03/22 03:31:27;;;;;;;21.13;16.10;;;5.60;99.90;;;;;;4992494;28;20533;-58
2022/03/22 03:33:57;;;;;;;19.67;15.50;;;5.50;99.90;;;;;;4998387;28;20527;-58
2022/03/22 03:36:29;;;;;;;17.03;15.20;;;5.50;99.90;;;;;;4996695;28;20496;-58
2022/03/22 03:39:03;;;;;;;17.70;15.27;;;5.50;99.90;;;;;;4983007;28;20460;-58
2022/03/22 03:41:57;;;;;;;20.10;16.27;;;5.50;99.90;;;;;;4993054;28;20962;-59
2022/03/22 03:47:25;;;;;;;20.20;15.60;;;5.60;99.90;;;;;;4995210;28;20428;-58
2022/03/22 03:50:01;;;;;;;18.50;14.97;;;5.50;99.90;;;;;;4993454;28;20534;-59
2022/03/22 03:52:31;;;;;;;19.87;13.60;;;5.40;99.90;;;;;;4989041;28;20476;-59
2022/03/22 03:55:01;;;;;;;23.13;15.60;;;5.40;99.90;;;;;;4994386;28;20475;-58
2022/03/22 03:57:30;;;;;;;20.97;14.97;;;5.40;99.90;;;;;;4998164;28;20525;-58
2022/03/22 04:00:04;;;;;;;21.17;16.30;;;5.40;99.90;;;;;;4990694;28;20469;-57
2022/03/22 04:02:34;;;;;;;22.37;16.40;;;5.40;99.90;;;;;;4992123;28;20536;-59
2022/03/22 04:05:05;;;;;;;20.53;16.37;;;5.40;99.90;;;;;;4996877;28;20480;-59
2022/03/22 04:07:32;;;;;;;18.70;15.03;;;5.40;99.90;;;;;;4998493;28;20473;-59
2022/03/22 04:10:07;;;;;;;19.20;15.67;;;5.30;99.90;;;;;;4981337;28;20541;-59
2022/03/22 04:12:41;;;;;;;21.50;16.50;;;5.30;99.90;;;;;;4994039;28;20520;-59
2022/03/22 04:15:09;;;;;;;22.50;15.10;;;5.40;99.90;;;;;;4991792;28;20472;-58
2022/03/22 04:17:35;;;;;;;17.20;15.23;;;5.40;99.90;;;;;;4998248;28;20472;-58
2022/03/22 04:20:08;;;;;;;16.77;13.80;;;5.40;99.90;;;;;;4978870;28;20466;-59
2022/03/22 04:25:24;;;;;;;22.33;16.40;;;5.40;99.90;;;;;;4979285;28;20453;-59
2022/03/22 04:33:23;;;;;;;19.97;14.47;;;5.20;99.90;;;;;;4998163;28;20478;-58
2022/03/22 04:35:50;;;;;;;20.93;14.30;;;5.30;99.90;;;;;;4983055;28;20466;-58
2022/03/22 04:38:17;;;;;;;18.40;14.97;;;5.30;99.90;;;;;;4976831;28;20468;-58
2022/03/22 04:40:47;;;;;;;18.73;14.27;;;5.30;99.90;;;;;;4983110;28;20544;-58
2022/03/22 04:43:20;;;;;;;17.93;14.80;;;5.30;99.90;;;;;;4991086;28;20817;-59
2022/03/22 04:45:55;;;;;;;20.43;15.00;;;5.30;99.90;;;;;;4985601;28;20440;-57
2022/03/22 04:48:29;;;;;;;21.97;15.47;;;5.30;99.90;;;;;;4976412;28;20492;-59
2022/03/22 04:59:09;;;;;;;19.10;15.80;;;5.10;99.90;;;;;;4992360;28;20584;-59
2022/03/22 05:01:39;;;;;;;18.13;14.47;;;5.10;99.90;;;;;;4986388;28;20493;-58
2022/03/22 05:04:08;;;;;;;19.10;15.53;;;5.10;99.90;;;;;;4993568;28;20466;-58
2022/03/22 05:06:39;;;;;;;19.67;15.07;;;5.10;99.90;;;;;;4995667;28;20469;-59
2022/03/22 05:09:22;;;;;;;20.83;16.60;;;5.10;99.90;;;;;;4994521;28;20496;-59
2022/03/22 05:11:52;;;;;;;17.50;14.60;;;5.00;99.90;;;;;;4987772;28;20480;-59
2022/03/22 05:14:19;;;;;;;17.73;14.10;;;5.00;99.90;;;;;;4977720;28;20505;-58
2022/03/22 05:16:49;;;;;;;23.43;15.90;;;5.10;99.90;;;;;;4977195;28;20744;-59
2022/03/22 05:19:16;;;;;;;18.10;14.87;;;5.20;99.90;;;;;;4977696;28;20480;-60
2022/03/22 05:21:56;;;;;;;18.17;14.90;;;5.10;99.90;;;;;;4976071;28;20570;-59
2022/03/22 05:24:23;;;;;;;23.03;14.83;;;5.00;99.90;;;;;;4997327;28;20515;-59
2022/03/22 05:26:56;;;;;;;18.60;14.50;;;4.90;99.90;;;;;;4985799;28;20465;-59
2022/03/22 05:29:25;;;;;;;18.27;15.10;;;4.80;99.90;;;;;;4984953;28;20473;-59
2022/03/22 05:31:56;;;;;;;21.63;15.17;;;4.90;99.90;;;;;;4996219;28;20476;-59
2022/03/22 05:34:26;;;;;;;17.70;14.57;;;4.90;99.90;;;;;;4973943;28;20540;-59
2022/03/22 05:36:55;;;;;;;23.57;16.60;;;4.80;99.90;;;;;;4981243;28;20511;-59
2022/03/22 05:39:25;;;;;;;20.73;16.60;;;4.70;99.90;;;;;;4978281;28;20584;-60
2022/03/22 05:41:57;;;;;;;18.53;14.67;;;4.70;99.90;;;;;;4977019;28;20788;-58
2022/03/22 05:44:24;;;;;;;20.97;16.20;;;4.70;99.90;;;;;;4982508;28;20554;-59
2022/03/22 05:46:51;;;;;;;17.67;14.57;;;4.80;99.90;;;;;;4980979;28;20826;-59
2022/03/22 05:49:18;;;;;;;17.40;13.80;;;4.70;99.90;;;;;;4975139;28;20470;-59
2022/03/22 05:51:47;;;;;;;17.20;14.97;;;4.70;99.90;;;;;;4986065;28;20524;-60
2022/03/22 05:54:17;;;;;;;22.93;15.03;;;4.80;99.90;;;;;;4979442;28;20942;-59
2022/03/22 05:56:46;;;;;;;18.10;15.30;;;4.70;99.90;;;;;;4986608;28;20465;-60
2022/03/22 05:59:15;;;;;;;17.43;13.73;;;4.70;99.90;;;;;;4985542;28;20524;-59
2022/03/22 06:01:44;;;;;;;18.10;13.70;;;4.80;99.90;;;;;;4988881;28;20490;-60
2022/03/22 06:04:19;;;;;;;17.80;14.90;;;4.80;99.90;;;;;;4990309;28;20492;-59
2022/03/22 06:06:48;;;;;;;18.50;15.17;;;4.80;99.90;;;;;;4981535;28;20473;-59
2022/03/22 06:09:18;;;;;;;19.37;15.10;;;4.80;99.90;;;;;;4978481;28;20505;-59
2022/03/22 06:11:45;;;;;;;20.10;16.37;;;4.80;99.90;;;;;;4980784;28;20505;-59
2022/03/22 06:14:12;;;;;;;21.00;17.00;;;4.90;99.90;;;;;;4978762;28;20903;-59
2022/03/22 06:16:42;;;;;;;18.97;15.90;;;5.00;99.90;;;;;;4983974;28;20965;-57
2022/03/22 06:19:08;;;;;;;18.10;15.50;;;5.10;99.90;;;;;;4980919;28;20522;-59
2022/03/22 06:21:41;;;;;;;22.10;17.17;;;5.00;99.90;;;;;;4980926;28;20870;-59
2022/03/22 06:24:10;;;;;;;18.87;14.90;;;5.20;99.90;;;;;;4980106;28;20470;-60
2022/03/22 06:26:37;;;;;;;18.10;16.20;;;5.30;99.90;;;;;;4981946;28;20482;-60
2022/03/22 06:29:04;;;;;;;19.50;15.53;;;5.50;99.90;;;;;;4984057;28;20485;-59
2022/03/22 06:31:33;;;;;;;17.83;15.93;;;5.70;99.90;;;;;;4979515;28;20465;-59
2022/03/22 06:34:04;;;;;;;18.17;14.47;;;5.80;99.90;;;;;;4979626;28;20612;-60
2022/03/22 06:36:32;;;;;;;18.40;14.80;;;6.00;99.90;;;;;;4988380;28;20481;-60
2022/03/22 06:38:59;;;;;;;18.27;15.10;;;6.20;99.90;;;;;;4973467;28;20500;-60
2022/03/22 06:41:25;;;;;;;19.20;13.77;;;6.40;99.90;;;;;;4976170;28;20465;-59
2022/03/22 06:43:56;;;;;;;18.73;14.77;;;6.60;99.90;;;;;;4982668;28;20796;-60
2022/03/22 06:46:23;;;;;;;18.47;15.40;;;6.90;99.90;;;;;;4980498;28;20457;-60
2022/03/22 06:48:56;;;;;;;18.00;13.97;;;7.00;99.90;;;;;;4978094;28;20560;-59
2022/03/22 06:51:24;;;;;;;17.60;14.57;;;7.30;99.90;;;;;;4983798;28;20462;-59
2022/03/22 06:53:52;;;;;;;16.33;13.97;;;7.40;99.90;;;;;;4985785;28;20461;-60
2022/03/22 06:56:25;;;;;;;17.40;14.67;;;7.70;99.90;;;;;;4990827;28;21025;-60
2022/03/22 06:58:59;;;;;;;20.43;15.33;;;7.90;99.90;;;;;;4998960;28;20479;-59
2022/03/22 07:01:35;;;;;;;15.80;13.90;;;8.20;99.90;;;;;;4973893;28;20524;-59
2022/03/22 07:04:05;;;;;;;16.30;14.60;;;8.40;99.90;;;;;;4977172;28;20516;-60
2022/03/22 07:06:33;;;;;;;16.40;14.57;;;8.70;99.90;;;;;;4988207;28;20469;-60
2022/03/22 07:09:03;;;;;;;17.37;14.93;;;9.10;99.90;;;;;;4992055;28;20489;-59
2022/03/22 07:11:55;;;;;;;17.00;15.20;;;9.40;99.90;;;;;;4976176;28;20834;-59
2022/03/22 07:14:30;;;;;;;18.77;16.10;;;9.60;99.90;;;;;;4993541;28;20496;-60
2022/03/22 07:16:59;;;;;;;26.07;16.37;;;10.10;99.90;;;;;;4977544;28;20527;-59
2022/03/22 07:19:31;;;;;;;20.90;16.63;;;10.20;99.90;;;;;;4979460;28;20906;-58
2022/03/22 07:22:01;;;;;;;18.93;16.07;;;10.40;99.90;;;;;;4975260;28;20493;-58
2022/03/22 07:24:31;;;;;;;19.13;16.70;;;10.70;99.90;;;;;;4981959;28;20473;-58
2022/03/22 07:27:01;;;;;;;17.53;15.73;;;10.80;99.90;;;;;;4986095;28;20489;-59
2022/03/22 07:29:31;;;;;;;21.00;16.83;;;11.10;99.90;;;;;;4977344;28;20885;-58
2022/03/22 07:31:59;;;;;;;18.97;15.60;;;11.50;99.90;;;;;;4988001;28;20918;-58
2022/03/22 07:34:27;;;;;;;16.17;14.37;;;11.80;99.90;;;;;;4997458;28;20467;-58
2022/03/22 07:36:56;;;;;;;15.87;14.10;;;12.20;99.90;;;;;;4993037;28;20461;-58
2022/03/22 07:39:27;;;;;;;15.20;13.50;;;12.60;99.90;;;;;;4981111;28;20520;-58
2022/03/22 07:41:54;;;;;;;14.60;13.20;;;12.80;99.90;;;;;;4981278;28;20493;-58
2022/03/22 07:44:27;;;;;;;14.90;13.10;;;13.10;99.90;;;;;;4986061;28;20470;-56
2022/03/22 07:46:54;;;;;;;12.93;11.73;;;13.30;99.90;;;;;;4982717;28;20469;-57
2022/03/22 07:54:56;;;;;;;12.80;11.50;;;14.00;99.90;;;;;;4976558;28;20433;-57
2022/03/22 07:57:25;;;;;;;16.10;12.97;;;14.40;99.90;;;;;;4977286;28;20909;-58
2022/03/22 07:59:52;;;;;;;16.70;14.50;;;14.60;99.90;;;;;;4961241;28;20954;-57
2022/03/22 08:02:19;;;;;;;14.30;12.90;;;14.50;99.90;;;;;;4992430;28;20544;-57
2022/03/22 08:04:48;;;;;;;13.57;12.33;;;14.70;99.90;;;;;;4998155;28;20461;-58
2022/03/22 08:07:17;;;;;;;14.93;13.43;;;15.00;99.90;;;;;;4997978;28;20744;-58
2022/03/22 08:09:50;;;;;;;14.47;12.70;;;15.20;99.90;;;;;;4980212;28;20497;-57
2022/03/22 08:12:18;;;;;;;13.87;12.67;;;15.40;99.90;;;;;;4977167;28;20473;-58
2022/03/22 08:14:50;;;;;;;14.10;12.70;;;15.70;99.90;;;;;;4976764;28;20474;-58
2022/03/22 08:17:17;;;;;;;14.40;13.00;;;15.70;99.90;;;;;;4981690;28;20468;-59
2022/03/22 08:19:47;;;;;;;15.83;14.23;;;15.80;99.90;;;;;;4987403;28;20515;-59
2022/03/22 08:22:19;;;;;;;15.00;13.47;;;15.90;99.90;;;;;;4992760;28;20501;-57
2022/03/22 08:24:54;;;;;;;15.40;13.27;;;16.20;99.90;;;;;;4982747;28;20479;-59
2022/03/22 08:27:23;;;;;;;14.40;13.10;;;16.30;99.90;;;;;;4996824;28;20472;-59
2022/03/22 08:29:51;;;;;;;15.00;13.60;;;16.40;99.90;;;;;;4996021;28;20886;-58
2022/03/22 08:32:18;;;;;;;15.13;13.57;;;16.30;99.90;;;;;;4997234;28;20496;-59
2022/03/22 08:34:47;;;;;;;14.47;13.03;;;16.40;99.90;;;;;;4983900;28;20520;-58
2022/03/22 08:37:16;;;;;;;14.20;12.90;;;16.60;99.90;;;;;;4985230;28;20468;-60
2022/03/22 08:39:43;;;;;;;14.03;12.63;;;16.90;99.90;;;;;;4993721;28;20478;-59
2022/03/22 08:42:13;;;;;;;14.70;13.03;;;17.00;99.90;;;;;;4979930;28;20472;-59
2022/03/22 08:44:54;;;;;;;15.30;12.43;;;17.20;99.90;;;;;;4985050;28;20465;-59
2022/03/22 08:47:21;;;;;;;13.23;12.03;;;17.30;99.90;;;;;;4998338;28;20464;-59
2022/03/22 08:49:52;;;;;;;13.77;12.30;;;17.20;99.90;;;;;;4997686;28;20465;-58
2022/03/22 08:52:19;;;;;;;14.10;12.90;;;17.20;99.90;;;;;;4978795;28;20509;-58
2022/03/22 08:54:55;;;;;;;14.00;12.60;;;17.40;99.90;;;;;;4981895;28;20962;-60
2022/03/22 08:57:27;;;;;;;12.73;11.53;;;17.60;99.90;;;;;;4988396;28;20838;-59
2022/03/22 08:59:56;;;;;;;13.93;12.53;;;17.90;99.90;;;;;;4998033;28;20480;-58
2022/03/22 09:02:23;;;;;;;14.60;13.20;;;18.20;99.90;;;;;;4991250;28;20948;-58
2022/03/22 09:07:34;;;;;;;14.07;12.67;;;18.50;99.90;;;;;;4976776;28;20441;-59
2022/03/22 09:10:03;;;;;;;14.03;12.70;;;18.70;99.90;;;;;;4975230;28;20525;-59
2022/03/22 09:12:29;;;;;;;14.53;13.27;;;18.80;99.90;;;;;;4975748;28;20466;-58
2022/03/22 09:15:01;;;;;;;14.77;13.30;;;19.00;99.90;;;;;;4984454;28;20519;-61
2022/03/22 09:17:33;;;;;;;14.70;13.40;;;18.80;99.90;;;;;;4977659;28;20513;-58
2022/03/22 09:19:59;;;;;;;13.60;12.40;;;19.30;99.90;;;;;;4977866;28;20814;-60
2022/03/22 09:22:26;;;;;;;13.00;11.83;;;19.50;99.90;;;;;;4977414;28;20493;-60
2022/03/22 09:24:56;;;;;;;13.97;12.67;;;19.60;99.90;;;;;;4978212;28;20524;-61
2022/03/22 09:27:24;;;;;;;13.07;11.87;;;19.90;99.90;;;;;;4978018;28;20507;-60
2022/03/22 09:29:52;;;;;;;15.70;12.87;;;20.00;99.90;;;;;;4978272;28;20943;-61
2022/03/22 09:32:20;;;;;;;13.70;12.33;;;20.30;99.90;;;;;;4977427;28;20497;-59
2022/03/22 09:34:47;;;;;;;15.30;13.90;;;20.40;99.90;;;;;;4981100;28;20462;-59
2022/03/22 09:37:17;;;;;;;16.70;12.83;;;20.60;99.90;;;;;;4980489;28;20466;-58
2022/03/22 09:39:47;;;;;;;13.40;12.20;;;20.70;99.90;;;;;;4979962;28;20453;-58
2022/03/22 09:42:14;;;;;;;13.00;11.90;;;20.80;99.90;;;;;;4978862;28;20872;-58
2022/03/22 09:44:47;;;;;;;14.00;12.43;;;20.90;99.90;;;;;;4979189;28;20466;-59
2022/03/22 09:47:19;;;;;;;13.13;11.83;;;20.70;99.90;;;;;;4980147;28;20468;-60
2022/03/22 09:49:53;;;;;;;12.23;11.03;;;20.80;99.90;;;;;;4977628;28;20454;-58
2022/03/22 09:52:23;;;;;;;12.60;11.60;;;21.00;99.90;;;;;;4976061;28;20463;-57
2022/03/22 09:54:51;;;;;;;12.80;11.70;;;20.80;99.90;;;;;;4977885;28;20568;-58
2022/03/22 09:57:18;;;;;;;14.23;12.73;;;20.80;99.90;;;;;;4978496;28;20465;-58
2022/03/22 09:59:48;;;;;;;13.70;12.37;;;20.90;99.90;;;;;;4977869;28;20466;-59
2022/03/22 10:02:15;;;;;;;13.60;12.50;;;20.90;99.90;;;;;;4981404;28;20588;-58
2022/03/22 10:04:44;;;;;;;13.07;11.97;;;21.00;99.90;;;;;;4972893;28;20470;-57
2022/03/22 10:07:24;;;;;;;12.63;11.43;;;21.20;99.90;;;;;;4966000;28;20823;-58
2022/03/22 10:10:01;;;;;;;14.07;12.10;;;21.50;99.90;;;;;;4980358;28;20497;-58
2022/03/22 10:12:46;;;;;;;14.80;12.30;;;21.60;99.90;;;;;;4969191;28;20471;-59
2022/03/22 10:15:28;;;;;;;11.60;10.50;;;21.00;99.90;;;;;;4974133;28;20490;-58
2022/03/22 10:18:05;;;;;;;13.17;11.20;;;21.30;99.90;;;;;;4980805;28;20469;-58
2022/03/22 10:20:37;;;;;;;13.50;12.10;;;21.70;99.90;;;;;;4977242;28;20461;-58
2022/03/22 10:23:06;;;;;;;20.43;12.07;;;21.70;99.90;;;;;;4964279;28;20951;-59
2022/03/22 10:25:45;;;;;;;13.50;12.30;;;21.80;99.90;;;;;;4979757;28;20474;-58
2022/03/22 10:28:18;;;;;;;12.47;11.20;;;22.20;99.90;;;;;;4979453;28;20810;-58
2022/03/22 10:30:57;;;;;;;13.47;12.10;;;22.60;99.90;;;;;;4978297;28;20564;-58
2022/03/22 10:33:27;;;;;;;13.10;11.90;;;22.40;99.90;;;;;;4979017;28;20516;-59
2022/03/22 10:36:12;;;;;;;13.20;11.80;;;22.30;99.90;;;;;;4976243;28;20466;-58
2022/03/22 10:38:52;;;;;;;13.23;12.03;;;22.50;99.90;;;;;;4975226;28;20513;-60
2022/03/22 10:41:25;;;;;;;12.13;11.00;;;22.40;99.90;;;;;;4972929;28;20882;-58
2022/03/22 10:44:02;;;;;;;12.93;11.00;;;21.30;99.90;;;;;;4979119;28;20572;-60
2022/03/22 10:46:31;;;;;;;10.80;9.83;;;21.00;99.90;;;;;;4978424;28;20537;-59
2022/03/22 10:49:09;;;;;;;12.10;10.77;;;21.90;99.90;;;;;;4980053;28;20477;-58
2022/03/22 10:51:46;;;;;;;12.60;11.30;;;22.60;99.90;;;;;;4978798;28;20903;-58
2022/03/22 10:54:23;;;;;;;15.00;11.90;;;22.90;99.90;;;;;;4979999;28;20468;-56
2022/03/22 10:57:01;;;;;;;12.50;11.30;;;22.90;99.90;;;;;;4978020;28;20522;-58
2022/03/22 10:59:28;;;;;;;12.87;11.53;;;22.60;99.90;;;;;;4979389;28;20504;-59
2022/03/22 11:01:56;;;;;;;13.13;11.90;;;22.90;99.90;;;;;;4978620;28;20458;-60
2022/03/22 11:04:24;;;;;;;12.23;10.93;;;23.00;99.90;;;;;;4979050;28;20522;-59
2022/03/22 11:06:55;;;;;;;12.70;11.37;;;22.80;99.90;;;;;;4977817;28;20515;-60
2022/03/22 11:09:24;;;;;;;12.77;11.57;;;23.50;99.90;;;;;;4978778;28;20529;-57
2022/03/22 11:11:51;;;;;;;13.37;12.07;;;23.60;99.90;;;;;;4979550;28;20469;-58
2022/03/22 11:14:20;;;;;;;13.63;12.43;;;22.20;99.90;;;;;;4979124;28;20458;-57
2022/03/22 11:16:50;;;;;;;11.80;10.50;;;23.00;99.90;;;;;;4978542;28;20993;-58
2022/03/22 11:19:18;;;;;;;12.73;11.53;;;23.30;99.90;;;;;;4979246;28;20490;-60
2022/03/22 11:21:54;;;;;;;16.90;13.57;;;23.60;99.90;;;;;;4974460;28;20473;-60
2022/03/22 11:24:26;;;;;;;13.63;11.87;;;23.50;99.90;;;;;;4978077;28;20569;-59
2022/03/22 11:26:55;;;;;;;14.73;11.23;;;23.40;99.90;;;;;;4977366;28;20525;-58
2022/03/22 11:29:32;;;;;;;12.07;11.07;;;23.60;99.90;;;;;;4979074;28;20561;-59
2022/03/22 11:34:51;;;;;;;13.80;10.33;;;23.80;99.90;;;;;;4978287;28;20445;-60
2022/03/22 11:37:29;;;;;;;9.13;8.30;;;23.80;99.90;;;;;;4979211;28;20478;-59
2022/03/22 11:43:01;;;;;;;9.97;9.17;;;23.70;99.90;;;;;;4978386;28;20481;-58
2022/03/22 11:45:47;;;;;;;13.60;10.60;;;24.10;99.90;;;;;;4977880;28;20775;-60
2022/03/22 11:48:16;;;;;;;12.00;9.37;;;23.40;99.90;;;;;;4978806;28;20524;-60
2022/03/22 11:50:44;;;;;;;11.27;10.10;;;23.50;99.90;;;;;;4972270;28;20582;-60
2022/03/22 11:53:18;;;;;;;11.33;9.80;;;23.60;99.90;;;;;;4978340;28;20458;-59
2022/03/22 11:55:53;;;;;;;11.13;10.00;;;23.60;99.90;;;;;;4975467;28;20946;-59
2022/03/22 11:58:28;;;;;;;13.60;9.57;;;23.50;99.90;;;;;;4976722;28;20496;-60
2022/03/22 12:01:03;;;;;;;14.00;9.60;;;24.10;99.90;;;;;;4976997;28;20902;-60
2022/03/22 12:03:35;;;;;;;11.37;10.27;;;24.20;99.90;;;;;;4977094;28;20512;-60
2022/03/22 12:06:13;;;;;;;14.03;9.70;;;24.30;99.90;;;;;;4977288;28;20845;-60
2022/03/22 12:08:41;;;;;;;11.77;10.10;;;24.10;99.90;;;;;;4975615;28;20930;-60
2022/03/22 12:11:15;;;;;;;10.87;9.87;;;23.60;99.90;;;;;;4976385;28;20458;-60
2022/03/22 12:13:45;;;;;;;11.73;9.40;;;23.10;99.90;;;;;;4978161;28;20816;-56
2022/03/22 12:16:15;;;;;;;12.10;10.67;;;23.30;99.90;;;;;;4977358;28;20469;-60
2022/03/22 12:18:43;;;;;;;13.83;11.20;;;23.20;99.90;;;;;;4978607;28;20886;-60
2022/03/22 12:21:18;;;;;;;11.33;10.10;;;23.70;99.90;;;;;;4977847;28;20466;-59
2022/03/22 12:23:46;;;;;;;13.97;10.47;;;23.50;99.90;;;;;;4978608;28;20584;-60
2022/03/22 12:26:18;;;;;;;12.10;10.90;;;23.50;99.90;;;;;;4975172;28;20470;-60
2022/03/22 12:28:54;;;;;;;10.80;9.53;;;23.10;99.90;;;;;;4978274;28;20532;-59
2022/03/22 12:31:30;;;;;;;10.33;9.33;;;23.20;99.90;;;;;;4978099;28;20890;-60
2022/03/22 12:33:58;;;;;;;16.73;10.97;;;23.70;99.90;;;;;;4978730;28;20465;-60
2022/03/22 12:36:25;;;;;;;11.67;10.47;;;24.00;99.90;;;;;;4978355;28;20461;-60
2022/03/22 12:38:55;;;;;;;13.40;10.70;;;23.60;99.90;;;;;;4974400;28;20505;-57
2022/03/22 12:41:28;;;;;;;12.40;11.13;;;23.80;99.90;;;;;;4977830;28;20478;-57
2022/03/22 12:43:55;;;;;;;13.10;10.50;;;23.90;99.90;;;;;;4976440;28;20494;-57
2022/03/22 12:46:28;;;;;;;12.13;11.03;;;23.70;99.90;;;;;;4974125;28;20914;-57
2022/03/22 12:48:57;;;;;;;16.03;10.90;;;23.90;99.90;;;;;;4976943;28;20462;-57
2022/03/22 12:51:38;;;;;;;10.93;9.83;;;24.00;99.90;;;;;;4976914;28;20477;-57
2022/03/22 12:54:06;;;;;;;12.97;11.53;;;24.20;99.90;;;;;;4950477;29;20466;-57
2022/03/22 12:56:36;;;;;;;14.60;11.40;;;23.90;99.90;;;;;;4957729;29;20482;-56
2022/03/22 12:59:06;;;;;;;12.47;10.30;;;23.40;99.90;;;;;;4975413;28;20466;-58
2022/03/22 13:01:40;;;;;;;12.30;11.07;;;23.70;99.90;;;;;;4976807;28;20838;-55
2022/03/22 13:04:08;;;;;;;13.17;11.83;;;22.90;99.90;;;;;;4974570;28;20584;-58
2022/03/22 13:06:39;;;;;;;12.60;11.30;;;23.10;99.90;;;;;;4975194;28;20469;-57
2022/03/22 13:12:00;;;;;;;13.17;11.90;;;23.50;99.90;;;;;;4974709;28;20556;-58
2022/03/22 13:17:13;;;;;;;14.33;12.03;;;22.40;99.90;;;;;;4977419;28;20441;-57
2022/03/22 13:19:40;;;;;;;12.93;11.43;;;22.70;99.90;;;;;;4979548;28;20466;-58
2022/03/22 13:22:17;;;;;;;12.67;11.30;;;22.90;99.90;;;;;;4978921;28;20972;-55
2022/03/22 13:24:46;;;;;;;18.77;12.00;;;23.60;99.90;;;;;;4978288;28;20548;-57
2022/03/22 13:27:20;;;;;;;13.67;12.13;;;23.70;99.90;;;;;;4980418;28;20472;-58
2022/03/22 13:29:49;;;;;;;13.50;11.17;;;23.90;99.90;;;;;;4980475;28;20470;-59
2022/03/22 13:32:20;;;;;;;14.10;12.67;;;24.10;99.90;;;;;;4977196;28;20473;-59
2022/03/22 13:34:59;;;;;;;14.47;12.83;;;23.70;99.90;;;;;;4981151;28;20466;-59